createdAt,value
2022-12-18T00:03:29.192Z,1010.18
2022-12-18T00:08:33.184Z,1010.29
2022-12-18T00:13:37.766Z,1010.31
2022-12-18T00:18:41.950Z,1010.29
2022-12-18T00:23:45.672Z,1010.36
2022-12-18T00:28:49.846Z,1010.49
2022-12-18T00:33:55.158Z,1010.36
2022-12-18T00:38:56.270Z,1010.35
2022-12-18T00:44:00.461Z,1010.31
2022-12-18T00:49:04.605Z,1010.27
2022-12-18T00:54:08.796Z,1010.28
2022-12-18T00:59:12.959Z,1010.36
2022-12-18T01:04:17.225Z,1010.29
2022-12-18T01:09:21.295Z,1010.33
2022-12-18T01:14:25.454Z,1010.30
2022-12-18T01:19:29.622Z,1010.37
2022-12-18T01:24:33.819Z,1010.46
2022-12-18T01:29:38.021Z,1010.52
2022-12-18T01:34:42.132Z,1010.58
2022-12-18T01:39:46.310Z,1010.65
2022-12-18T01:44:50.509Z,1010.62
2022-12-18T01:49:54.669Z,1010.63
2022-12-18T01:54:58.861Z,1010.62
2022-12-18T02:00:02.977Z,1010.50
2022-12-18T02:05:07.147Z,1010.45
2022-12-18T02:10:11.348Z,1010.46
2022-12-18T02:15:15.499Z,1010.43
2022-12-18T02:20:19.710Z,1010.46
2022-12-18T02:25:23.844Z,1010.45
2022-12-18T02:30:28.030Z,1010.49
2022-12-18T02:35:32.160Z,1010.45
2022-12-18T02:40:36.366Z,1010.39
2022-12-18T02:45:40.608Z,1010.32
2022-12-18T02:50:44.712Z,1010.49
2022-12-18T02:55:48.878Z,1010.71
2022-12-18T03:00:53.105Z,1010.70
2022-12-18T03:05:57.223Z,1010.71
2022-12-18T03:11:01.400Z,1010.72
2022-12-18T03:16:05.581Z,1010.63
2022-12-18T03:21:09.706Z,1010.67
2022-12-18T03:26:13.917Z,1010.80
2022-12-18T03:31:18.144Z,1010.87
2022-12-18T03:36:22.211Z,1010.89
2022-12-18T03:41:26.422Z,1010.82
2022-12-18T03:46:30.670Z,1010.87
2022-12-18T03:51:34.768Z,1010.91
2022-12-18T03:56:38.905Z,1011.16
2022-12-18T04:01:43.166Z,1011.08
2022-12-18T04:06:47.263Z,1011.09
2022-12-18T04:11:51.422Z,1011.01
2022-12-18T04:16:55.572Z,1011.09
2022-12-18T04:21:59.746Z,1011.04
2022-12-18T04:27:03.939Z,1011.21
2022-12-18T04:32:08.106Z,1011.15
2022-12-18T04:37:12.308Z,1011.12
2022-12-18T04:42:16.413Z,1011.04
2022-12-18T04:47:20.633Z,1011.04
2022-12-18T04:52:24.770Z,1011.00
2022-12-18T04:57:28.968Z,1010.91
2022-12-18T05:02:33.193Z,1010.82
2022-12-18T05:07:37.307Z,1010.89
2022-12-18T05:12:41.442Z,1010.82
2022-12-18T05:17:45.644Z,1010.82
2022-12-18T05:22:49.772Z,1010.87
2022-12-18T05:27:53.979Z,1010.81
2022-12-18T05:32:58.131Z,1010.68
2022-12-18T05:38:02.325Z,1010.71
2022-12-18T05:43:06.495Z,1010.71
2022-12-18T05:48:10.672Z,1010.79
2022-12-18T05:53:14.852Z,1010.88
2022-12-18T05:58:19.012Z,1011.13
2022-12-18T06:03:21.319Z,1011.27
2022-12-18T06:08:25.441Z,1011.20
2022-12-18T06:13:29.641Z,1011.23
2022-12-18T06:18:33.784Z,1011.44
2022-12-18T06:23:38.255Z,1011.66
2022-12-18T06:28:42.092Z,1011.78
2022-12-18T06:33:44.417Z,1011.76
2022-12-18T06:38:48.662Z,1011.79
2022-12-18T06:43:56.823Z,1011.75
2022-12-18T06:48:56.874Z,1011.67
2022-12-18T06:54:01.094Z,1011.60
2022-12-18T06:59:05.256Z,1011.44
2022-12-18T07:04:09.440Z,1011.37
2022-12-18T07:09:13.703Z,1011.28
2022-12-18T07:14:17.770Z,1011.16
2022-12-18T07:19:22.084Z,1011.06
2022-12-18T07:24:26.088Z,1010.98
2022-12-18T07:29:30.256Z,1010.74
2022-12-18T07:34:34.428Z,1010.59
2022-12-18T07:39:38.610Z,1010.57
2022-12-18T07:44:42.816Z,1010.48
2022-12-18T07:49:46.927Z,1010.30
2022-12-18T07:54:51.136Z,1010.29
2022-12-18T07:59:55.393Z,1010.38
2022-12-18T08:04:59.483Z,1010.46
2022-12-18T08:10:03.656Z,1010.50
2022-12-18T08:15:07.794Z,1010.48
2022-12-18T08:20:11.992Z,1010.50
2022-12-18T08:25:16.115Z,1010.35
2022-12-18T08:30:20.288Z,1010.20
2022-12-18T08:35:24.501Z,1010.02
2022-12-18T08:40:28.693Z,1009.94
2022-12-18T08:45:32.841Z,1009.94
2022-12-18T08:50:36.976Z,1009.73
2022-12-18T08:55:43.560Z,1009.48
2022-12-18T09:00:45.322Z,1009.50
2022-12-18T09:05:49.480Z,1009.97
2022-12-18T09:10:53.802Z,1010.69
2022-12-18T09:15:57.836Z,1011.89
2022-12-18T09:21:02.010Z,1012.91
2022-12-18T09:26:06.194Z,1013.83
2022-12-18T09:31:10.392Z,1014.70
2022-12-18T09:36:14.496Z,1015.10
2022-12-18T09:41:18.660Z,1015.12
2022-12-18T09:46:22.939Z,1015.33
2022-12-18T09:51:27.001Z,1015.42
2022-12-18T09:56:31.179Z,1015.53
2022-12-18T10:01:43.087Z,1015.84
2022-12-18T10:06:39.509Z,1015.77
2022-12-18T10:11:43.671Z,1015.76
2022-12-18T10:16:47.827Z,1015.46
2022-12-18T10:21:52.036Z,1015.51
2022-12-18T10:26:56.165Z,1015.37
2022-12-18T10:32:00.332Z,1015.47
2022-12-18T10:37:04.481Z,1015.41
2022-12-18T10:42:08.668Z,1015.27
2022-12-18T10:47:12.825Z,1015.40
2022-12-18T10:52:17.006Z,1015.17
2022-12-18T10:57:21.191Z,1015.37
2022-12-18T11:02:25.525Z,1015.30
2022-12-18T11:07:29.521Z,1015.11
2022-12-18T11:12:33.653Z,1015.22
2022-12-18T11:17:37.847Z,1015.10
2022-12-18T11:22:42.021Z,1014.99
2022-12-18T11:27:46.158Z,1014.99
2022-12-18T11:32:50.339Z,1014.90
2022-12-18T11:37:54.488Z,1014.85
2022-12-18T11:42:58.649Z,1014.97
2022-12-18T11:48:02.828Z,1015.00
2022-12-18T11:53:06.969Z,1014.63
2022-12-18T11:58:11.152Z,1014.60
2022-12-18T12:03:13.680Z,1014.49
2022-12-18T12:08:17.613Z,1014.55
2022-12-18T12:13:21.783Z,1014.50
2022-12-18T12:18:25.939Z,1014.61
2022-12-18T12:23:30.154Z,1014.52
2022-12-18T12:28:34.283Z,1014.34
2022-12-18T12:33:38.905Z,1014.53
2022-12-18T12:38:46.821Z,1014.35
2022-12-18T12:43:50.507Z,1014.22
2022-12-18T12:48:50.946Z,1014.03
2022-12-18T12:53:55.086Z,1014.01
2022-12-18T12:58:59.271Z,1014.13
2022-12-18T13:04:03.450Z,1014.18
2022-12-18T13:09:07.568Z,1014.33
2022-12-18T13:14:11.766Z,1014.25
2022-12-18T13:19:15.886Z,1014.12
2022-12-18T13:24:20.051Z,1014.07
2022-12-18T13:29:24.242Z,1014.18
2022-12-18T13:34:29.312Z,1014.16
2022-12-18T13:39:34.863Z,1014.08
2022-12-18T13:44:40.568Z,1014.08
2022-12-18T13:49:40.901Z,1013.97
2022-12-18T13:54:45.041Z,1013.96
2022-12-18T13:59:49.206Z,1013.86
2022-12-18T14:04:53.388Z,1013.65
2022-12-18T14:10:12.159Z,1013.47
2022-12-18T14:15:01.743Z,1013.27
2022-12-18T14:20:05.885Z,1013.40
2022-12-18T14:25:10.038Z,1013.16
2022-12-18T14:30:14.220Z,1012.84
2022-12-18T14:35:18.384Z,1012.60
2022-12-18T14:40:22.534Z,1012.59
2022-12-18T14:45:26.736Z,1012.53
2022-12-18T14:50:30.878Z,1012.55
2022-12-18T14:55:35.033Z,1012.65
2022-12-18T15:00:39.234Z,1012.38
2022-12-18T15:05:43.386Z,1012.43
2022-12-18T15:10:47.587Z,1012.49
2022-12-18T15:15:51.760Z,1012.38
2022-12-18T15:20:55.856Z,1012.46
2022-12-18T15:26:00.033Z,1012.51
2022-12-18T15:31:04.293Z,1012.44
2022-12-18T15:36:08.377Z,1012.36
2022-12-18T15:41:14.264Z,1012.36
2022-12-18T15:46:16.762Z,1012.50
2022-12-18T15:51:20.842Z,1012.35
2022-12-18T15:56:25.034Z,1012.20
2022-12-18T16:01:29.312Z,1012.10
2022-12-18T16:06:51.059Z,1012.03
2022-12-18T16:11:37.525Z,1011.91
2022-12-18T16:16:41.710Z,1011.81
2022-12-18T16:21:45.894Z,1011.73
2022-12-18T16:26:50.014Z,1011.62
2022-12-18T16:31:54.178Z,1011.73
2022-12-18T16:37:03.349Z,1011.63
2022-12-18T16:42:05.621Z,1011.50
2022-12-18T16:47:06.696Z,1011.57
2022-12-18T16:52:10.807Z,1011.46
2022-12-18T16:57:15.022Z,1011.30
2022-12-18T17:02:19.438Z,1011.35
2022-12-18T17:07:23.379Z,1011.30
2022-12-18T17:12:27.501Z,1010.95
2022-12-18T17:17:31.668Z,1010.64
2022-12-18T17:27:40.021Z,1010.27
2022-12-18T17:32:42.269Z,1010.23
2022-12-18T17:37:46.453Z,1010.21
2022-12-18T17:42:50.587Z,1010.19
2022-12-18T17:47:59.649Z,1010.15
2022-12-18T17:52:58.921Z,1010.12
2022-12-18T17:58:03.075Z,1010.00
2022-12-18T18:03:07.445Z,1010.12
2022-12-18T18:08:11.440Z,1010.14
2022-12-18T18:13:15.615Z,1009.93
2022-12-18T18:18:19.762Z,1009.92
2022-12-18T18:23:23.946Z,1009.85
2022-12-18T18:28:28.115Z,1009.76
2022-12-18T18:33:32.238Z,1009.79
2022-12-18T18:38:36.422Z,1009.86
2022-12-18T18:43:40.917Z,1009.86
2022-12-18T18:48:44.765Z,1009.83
2022-12-18T18:53:48.930Z,1009.71
2022-12-18T18:58:53.057Z,1009.76
2022-12-18T19:03:57.309Z,1009.97
2022-12-18T19:09:01.610Z,1010.13
2022-12-18T19:14:05.593Z,1010.18
2022-12-18T19:19:09.766Z,1010.32
2022-12-18T19:24:13.914Z,1010.21
2022-12-18T19:29:18.082Z,1010.07
2022-12-18T19:34:22.252Z,1009.84
2022-12-18T19:39:26.438Z,1009.86
2022-12-18T19:44:30.566Z,1009.92
2022-12-18T19:49:34.730Z,1010.05
2022-12-18T19:54:38.936Z,1010.11
2022-12-18T19:59:43.084Z,1010.22
2022-12-18T20:04:47.229Z,1010.25
2022-12-18T20:09:57.085Z,1010.25
2022-12-18T20:14:55.590Z,1010.19
2022-12-18T20:19:59.768Z,1010.18
2022-12-18T20:25:03.918Z,1010.15
2022-12-18T20:30:08.207Z,1010.21
2022-12-18T20:35:12.264Z,1010.22
2022-12-18T20:40:16.610Z,1010.22
2022-12-18T20:45:20.562Z,1010.19
2022-12-18T20:50:24.739Z,1010.30
2022-12-18T20:55:28.934Z,1010.27
2022-12-18T21:00:33.056Z,1010.16
2022-12-18T21:05:37.265Z,1009.88
2022-12-18T21:10:41.428Z,1009.65
2022-12-18T21:15:45.588Z,1009.62
2022-12-18T21:20:49.703Z,1009.24
2022-12-18T21:25:55.862Z,1009.08
2022-12-18T21:30:58.125Z,1009.04
2022-12-18T21:36:02.227Z,1009.01
2022-12-18T21:41:06.400Z,1009.08
2022-12-18T21:46:10.667Z,1008.97
2022-12-18T21:51:14.712Z,1009.30
2022-12-18T21:56:18.886Z,1009.09
2022-12-18T22:01:23.233Z,1009.11
2022-12-18T22:06:27.259Z,1009.23
2022-12-18T22:11:31.412Z,1009.30
2022-12-18T22:16:35.562Z,1009.23
2022-12-18T22:21:39.733Z,1008.80
2022-12-18T22:26:43.896Z,1008.53
2022-12-18T22:31:48.110Z,1008.17
2022-12-18T22:36:52.205Z,1007.93
2022-12-18T22:41:56.389Z,1007.63
2022-12-18T22:47:05.677Z,1007.42
2022-12-18T22:52:04.729Z,1007.24
2022-12-18T22:57:08.908Z,1007.10
2022-12-18T23:02:11.218Z,1006.87
2022-12-18T23:07:15.324Z,1006.72
2022-12-18T23:12:19.517Z,1006.50
2022-12-18T23:17:23.670Z,1006.30
2022-12-18T23:22:27.822Z,1006.20
2022-12-18T23:27:31.957Z,1005.98
2022-12-18T23:32:34.226Z,1005.65
2022-12-18T23:37:57.558Z,1005.35
2022-12-18T23:42:42.572Z,1005.02
2022-12-18T23:47:47.053Z,1004.74
2022-12-18T23:52:50.885Z,1004.57
2022-12-18T23:57:55.290Z,1004.55
